Terminal Aerodrome Forecast
Issued by NWS

Home | Current Version | Previous Version | Text Only | Print | Product List | Glossary On
Versions: 1 2 3 4 5 6 7 8 9 10 11 12 13 14 15 16 17 18 19 20 21 22 23 24
000
FTUS41 KOKX 242300 RRA
TAFSWF
TAF
KSWF 242350Z 2500/2606 VRB03KT P6SM SCT250
     FM251300 29005KT P6SM SKC
     FM251700 29010KT P6SM SCT050
     FM252100 27007KT P6SM SCT050 SCT090
     FM252300 26006KT P6SM BKN050
     FM260200 29008KT P6SM SCT050
      AMD NOT SKED=

USA.gov is the U.S. government's official web portal to all federal, state and local government web resources and services.